Time;durP1;ratioP1;P1;durP2;ratioP2;P2;SDS_P1;SDS_P2;PMS_P1;PMS_P2;Temp;Humidity;BMP_temperature;BMP_pressure;BME280_temperature;BME280_humidity;BME280_pressure;Samples;Min_cycle;Max_cycle;Signal;HPM_P1;HPM_P2
2024/04/17 00:01:35;;;;;;;11.25;2.58;;;9.50;99.90;;;14.60;49.32;97707.53;5034104;28;20028;-81
2024/04/17 00:04:03;;;;;;;18.00;7.45;;;9.50;99.90;;;14.58;49.57;97712.16;4988299;28;20035;-81
2024/04/17 00:06:36;;;;;;;10.93;3.88;;;9.50;99.90;;;14.54;49.74;97708.19;5025060;28;20017;-81
2024/04/17 00:09:04;;;;;;;10.07;3.00;;;9.40;99.90;;;14.58;49.35;97712.16;5013992;28;20017;-79
2024/04/17 00:11:34;;;;;;;16.35;3.42;;;9.40;99.90;;;14.50;49.86;97710.34;5015659;28;20067;-79
2024/04/17 00:14:02;;;;;;;4.15;2.22;;;9.40;99.90;;;14.50;49.92;97710.34;4991504;28;20013;-80
2024/04/17 00:16:32;;;;;;;5.80;1.63;;;9.40;99.90;;;14.48;50.11;97716.75;4991662;28;20017;-80
2024/04/17 00:19:00;;;;;;;6.30;1.95;;;9.30;99.90;;;14.41;50.11;97711.34;4986148;28;20013;-80
2024/04/17 00:21:30;;;;;;;9.60;2.10;;;9.30;99.90;;;14.39;50.39;97710.66;4985414;28;20012;-80
2024/04/17 00:24:01;;;;;;;12.52;3.08;;;9.30;99.90;;;14.42;49.96;97710.34;5011005;28;20468;-80
2024/04/17 00:26:31;;;;;;;16.80;3.78;;;9.30;99.90;;;14.46;50.01;97708.19;4987368;28;20017;-81
2024/04/17 00:28:59;;;;;;;5.18;1.67;;;9.30;99.90;;;14.43;49.93;97705.91;4987747;28;20016;-80
2024/04/17 00:31:29;;;;;;;4.07;2.20;;;9.20;99.90;;;14.36;50.58;97703.09;4988551;28;20012;-80
2024/04/17 00:33:57;;;;;;;8.15;2.80;;;9.10;99.90;;;14.32;50.58;97707.06;4986332;28;20016;-81
2024/04/17 00:36:28;;;;;;;5.72;2.50;;;9.10;99.90;;;14.35;50.09;97706.75;5002755;28;20016;-81
2024/04/17 00:38:55;;;;;;;7.18;2.13;;;9.10;99.90;;;14.32;50.31;97698.31;5014361;28;20024;-80
2024/04/17 00:41:28;;;;;;;4.65;2.17;;;9.10;99.90;;;14.25;50.36;97699.97;4985827;28;20093;-81
2024/04/17 00:43:56;;;;;;;2.17;1.50;;;9.00;99.90;;;14.15;50.65;97697.50;5013549;28;20008;-80
2024/04/17 00:46:26;;;;;;;13.57;2.20;;;9.00;99.90;;;14.14;50.96;97697.66;4989102;28;20487;-79
2024/04/17 00:48:55;;;;;;;4.70;1.70;;;9.00;99.90;;;14.11;50.88;97692.72;4985834;28;20012;-79
2024/04/17 00:51:25;;;;;;;4.95;1.60;;;9.00;99.90;;;14.11;51.07;97690.09;4990449;28;20012;-79
2024/04/17 00:53:53;;;;;;;6.80;2.00;;;9.00;99.90;;;14.10;50.87;97685.81;4994223;28;20351;-79
2024/04/17 00:56:24;;;;;;;13.05;1.75;;;9.00;99.90;;;14.08;51.03;97682.53;4989529;28;20017;-80
2024/04/17 00:58:54;;;;;;;4.07;2.13;;;9.00;99.90;;;14.10;51.16;97680.53;4990458;28;20024;-79
2024/04/17 01:01:25;;;;;;;5.10;1.85;;;9.00;99.90;;;14.08;51.09;97674.63;4990150;28;20089;-79
2024/04/17 01:03:57;;;;;;;8.77;2.00;;;9.00;99.90;;;14.11;50.91;97687.47;4988919;28;20060;-80
2024/04/17 01:06:29;;;;;;;7.05;2.00;;;8.90;99.90;;;14.05;51.26;97683.69;4989299;28;20020;-80
2024/04/17 01:08:56;;;;;;;3.53;1.58;;;8.90;99.90;;;14.02;51.07;97687.47;4989292;28;20012;-79
2024/04/17 01:11:27;;;;;;;3.75;1.75;;;8.90;99.90;;;14.07;50.90;97689.59;4989746;28;20012;-80
2024/04/17 01:13:57;;;;;;;5.53;1.58;;;8.90;99.90;;;14.04;50.88;97690.75;5012293;28;20012;-80
2024/04/17 01:16:27;;;;;;;3.42;1.35;;;8.90;99.90;;;14.00;51.05;97678.09;4987883;28;20016;-80
2024/04/17 01:18:56;;;;;;;2.75;1.48;;;8.80;99.90;;;13.96;50.86;97679.41;4989245;28;20016;-80
2024/04/17 01:21:27;;;;;;;6.97;2.00;;;8.80;99.90;;;13.95;50.74;97683.03;4989708;28;20019;-81
2024/04/17 01:23:57;;;;;;;4.68;1.77;;;8.80;99.90;;;13.86;51.21;97676.13;4991575;28;20614;-80
2024/04/17 01:26:27;;;;;;;6.82;1.55;;;8.70;99.90;;;13.79;51.22;97673.31;4989807;28;20028;-81
2024/04/17 01:28:55;;;;;;;5.05;2.03;;;8.70;99.90;;;13.70;51.13;97666.38;4997873;28;20047;-80
2024/04/17 01:31:25;;;;;;;7.32;2.22;;;8.70;99.90;;;13.68;51.08;97667.53;5013852;28;20013;-80
2024/04/17 01:33:53;;;;;;;5.43;1.80;;;8.70;99.90;;;13.63;51.00;97670.69;5001330;28;20036;-80
2024/04/17 01:36:23;;;;;;;3.95;1.98;;;8.70;99.90;;;13.66;51.15;97672.97;5000673;28;20013;-81
2024/04/17 01:38:51;;;;;;;8.27;2.58;;;8.60;99.90;;;13.64;51.45;97674.09;4995198;28;20013;-81
2024/04/17 01:41:25;;;;;;;9.07;2.22;;;8.60;99.90;;;13.68;51.29;97681.50;5018697;28;20504;-80
2024/04/17 01:43:52;;;;;;;9.63;3.33;;;8.60;99.90;;;13.73;51.28;97666.06;4986267;28;20023;-80
2024/04/17 01:46:23;;;;;;;7.88;2.95;;;8.60;99.90;;;13.75;50.99;97660.66;4989911;28;20478;-80
2024/04/17 01:48:50;;;;;;;11.93;2.70;;;8.60;99.90;;;13.69;51.31;97659.50;5023366;28;20009;-81
2024/04/17 01:51:21;;;;;;;9.07;2.95;;;8.60;99.90;;;13.64;51.22;97663.59;4990550;28;20017;-81
2024/04/17 01:53:48;;;;;;;7.40;2.85;;;8.60;99.90;;;13.59;51.19;97666.72;4990879;28;20023;-81
2024/04/17 01:56:19;;;;;;;6.45;2.88;;;8.60;99.90;;;13.53;51.61;97657.66;4992960;28;20013;-81
2024/04/17 01:58:49;;;;;;;9.40;3.47;;;8.50;99.90;;;13.49;51.50;97663.41;5000164;28;20019;-80
2024/04/17 02:01:19;;;;;;;9.15;2.80;;;8.50;99.90;;;13.45;51.74;97660.28;5001406;28;20023;-80
2024/04/17 02:03:48;;;;;;;6.03;2.78;;;8.50;99.90;;;13.46;51.69;97655.84;4995938;28;20015;-80
2024/04/17 02:06:19;;;;;;;4.80;1.98;;;8.50;99.90;;;13.47;51.28;97662.72;4995457;28;20028;-80
2024/04/17 02:08:47;;;;;;;4.57;2.05;;;8.50;99.90;;;13.46;51.14;97671.63;5001756;28;20463;-80
2024/04/17 02:11:17;;;;;;;5.40;1.75;;;8.40;99.90;;;13.45;51.27;97667.34;5017431;28;20019;-80
2024/04/17 02:13:47;;;;;;;2.90;1.60;;;8.40;99.90;;;13.47;51.23;97662.72;5019971;28;20016;-80
2024/04/17 02:16:18;;;;;;;5.60;2.33;;;8.40;99.90;;;13.46;51.28;97667.19;4996896;28;20024;-80
2024/04/17 02:18:48;;;;;;;6.35;2.10;;;8.40;99.90;;;13.47;51.61;97673.25;4989243;28;20027;-78
2024/04/17 02:21:16;;;;;;;10.63;1.85;;;8.40;99.90;;;13.48;51.26;97674.91;4989329;28;20031;-79
2024/04/17 02:23:49;;;;;;;4.45;2.15;;;8.30;99.90;;;13.43;51.59;97672.78;4991456;28;20028;-78
2024/04/17 02:26:17;;;;;;;6.20;1.88;;;8.30;99.90;;;13.42;51.21;97671.13;4990331;28;20012;-78
2024/04/17 02:28:47;;;;;;;7.78;2.17;;;8.20;99.90;;;13.38;51.61;97669.78;4991382;28;20013;-78
2024/04/17 02:31:18;;;;;;;9.18;2.30;;;8.20;99.90;;;13.28;51.54;97661.22;4989201;28;20020;-78
2024/04/17 02:33:48;;;;;;;3.83;1.85;;;8.10;99.90;;;13.29;51.62;97664.69;4989260;28;20460;-78
2024/04/17 02:36:16;;;;;;;5.93;2.30;;;8.20;99.90;;;13.28;51.40;97665.66;4989413;28;20012;-78
2024/04/17 02:38:46;;;;;;;3.22;1.92;;;8.10;99.90;;;13.26;51.46;97665.81;4989162;28;20067;-78
2024/04/17 02:41:14;;;;;;;5.20;1.65;;;8.00;99.90;;;13.25;51.27;97658.09;5015585;28;20819;-79
2024/04/17 02:43:44;;;;;;;5.63;1.98;;;8.00;99.90;;;13.30;51.50;97666.34;5021169;28;20016;-80
2024/04/17 02:46:12;;;;;;;5.97;1.90;;;8.00;99.90;;;13.30;51.48;97661.06;5004319;28;20020;-80
2024/04/17 02:48:45;;;;;;;12.73;2.80;;;8.10;99.90;;;13.24;51.29;97654.63;4989914;28;20063;-80
2024/04/17 02:51:13;;;;;;;6.57;2.10;;;8.00;99.90;;;13.19;51.62;97654.31;5001252;28;20093;-80
2024/04/17 02:53:48;;;;;;;6.35;2.42;;;7.90;99.90;;;13.10;51.41;97644.75;5020362;28;20016;-81
2024/04/17 02:56:15;;;;;;;6.65;2.30;;;7.90;99.90;;;13.10;51.54;97638.69;5004498;28;20027;-80
2024/04/17 02:58:46;;;;;;;8.82;2.78;;;7.80;99.90;;;13.09;51.51;97643.09;4989834;28;20028;-80
2024/04/17 03:01:15;;;;;;;5.70;2.22;;;7.80;99.90;;;13.06;51.83;97642.56;4995836;28;20016;-80
2024/04/17 03:03:47;;;;;;;7.97;3.33;;;7.80;99.90;;;13.01;51.69;97637.78;4996289;28;20008;-80
2024/04/17 03:06:15;;;;;;;10.65;3.92;;;7.80;99.90;;;12.93;52.01;97635.13;4988038;28;20012;-80
2024/04/17 03:08:48;;;;;;;11.43;4.93;;;7.70;99.90;;;12.86;52.33;97631.50;4988773;28;20023;-82
2024/04/17 03:11:16;;;;;;;7.85;3.10;;;7.70;99.90;;;12.82;52.49;97635.41;4997243;28;20462;-82
2024/04/17 03:13:46;;;;;;;9.52;2.97;;;7.60;99.90;;;12.81;52.25;97634.59;5014993;28;20035;-81
2024/04/17 03:16:14;;;;;;;9.85;3.63;;;7.60;99.90;;;12.83;52.35;97634.44;5011081;28;20017;-80
2024/04/17 03:18:47;;;;;;;15.82;5.10;;;7.60;99.90;;;12.83;52.36;97627.41;4987428;28;20253;-79
2024/04/17 03:21:14;;;;;;;12.10;3.60;;;7.60;99.90;;;12.78;52.24;97637.53;4984754;28;20551;-79
2024/04/17 03:23:45;;;;;;;12.60;3.50;;;7.50;99.90;;;12.77;52.39;97632.47;5005139;28;20012;-78
2024/04/17 03:26:12;;;;;;;9.70;2.83;;;7.50;99.90;;;12.81;52.02;97636.41;5010300;28;20017;-79
2024/04/17 03:28:43;;;;;;;8.60;2.78;;;7.50;99.90;;;12.79;52.63;97631.31;4986515;28;20838;-78
2024/04/17 03:31:10;;;;;;;12.60;3.10;;;7.50;99.90;;;12.77;52.10;97630.66;4988120;28;20024;-78
2024/04/17 03:33:41;;;;;;;11.50;3.10;;;7.40;99.90;;;12.74;52.33;97630.97;4986075;28;20017;-79
2024/04/17 03:36:11;;;;;;;9.57;3.05;;;7.40;99.90;;;12.69;52.65;97630.59;5000309;28;20016;-78
2024/04/17 03:38:41;;;;;;;6.93;3.08;;;7.40;99.90;;;12.71;52.57;97630.47;5006059;28;20013;-79
2024/04/17 03:41:11;;;;;;;8.82;3.25;;;7.30;99.90;;;12.71;52.23;97633.88;4988240;28;20024;-79
2024/04/17 03:43:42;;;;;;;7.32;2.50;;;7.30;99.90;;;12.72;52.34;97637.34;4985857;28;20017;-79
2024/04/17 03:46:12;;;;;;;9.88;2.85;;;7.30;99.90;;;12.74;52.34;97638.84;4986775;28;20028;-78
2024/04/17 03:48:42;;;;;;;4.30;2.03;;;7.30;99.90;;;12.69;52.38;97633.22;4986443;28;20079;-79
2024/04/17 03:51:13;;;;;;;4.55;1.65;;;7.30;99.90;;;12.69;52.37;97630.59;4987042;28;20016;-79
2024/04/17 03:53:50;;;;;;;6.88;2.20;;;7.30;99.90;;;12.69;52.16;97640.28;5003804;28;20015;-79
2024/04/17 03:56:18;;;;;;;9.80;2.20;;;7.20;99.90;;;12.65;52.12;97634.50;4989196;28;20020;-79
2024/04/17 03:58:53;;;;;;;8.95;2.40;;;7.20;99.90;;;12.66;51.96;97630.91;4985516;28;20029;-79
2024/04/17 04:01:26;;;;;;;6.97;2.13;;;7.10;99.90;;;12.58;52.28;97630.06;5003313;28;20210;-80
2024/04/17 04:03:56;;;;;;;5.45;1.88;;;7.10;99.90;;;12.58;52.03;97628.25;5012147;28;20068;-79
2024/04/17 04:06:32;;;;;;;5.90;2.05;;;7.10;99.90;;;12.58;51.78;97624.81;4990352;28;20020;-81
2024/04/17 04:09:07;;;;;;;5.93;2.08;;;7.10;99.90;;;12.59;51.95;97629.06;4994562;28;20472;-81
2024/04/17 04:11:35;;;;;;;5.13;2.20;;;7.10;99.90;;;12.60;51.98;97620.22;4992172;28;20013;-82
2024/04/17 04:14:10;;;;;;;4.03;2.00;;;7.00;99.90;;;12.54;51.91;97618.22;5009226;28;20009;-83
2024/04/17 04:16:38;;;;;;;6.20;2.40;;;6.90;99.90;;;12.48;52.25;97623.13;5019812;28;20016;-79
2024/04/17 04:19:13;;;;;;;4.25;2.25;;;6.90;99.90;;;12.41;51.95;97621.28;5016705;28;20494;-79
2024/04/17 04:21:48;;;;;;;7.43;2.40;;;6.90;99.90;;;12.38;52.04;97625.03;4988566;28;20012;-79
2024/04/17 04:24:19;;;;;;;5.60;2.72;;;6.90;99.90;;;12.40;52.59;97624.88;5016359;28;20016;-79
2024/04/17 04:26:51;;;;;;;7.18;2.70;;;6.90;99.90;;;12.39;52.17;97621.44;5018990;28;20024;-81
2024/04/17 04:29:22;;;;;;;6.35;2.88;;;6.90;99.90;;;12.40;52.12;97627.50;5013946;28;20009;-78
2024/04/17 04:31:49;;;;;;;9.13;3.03;;;6.90;99.90;;;12.40;51.89;97627.50;5012089;28;20361;-78
2024/04/17 04:34:20;;;;;;;8.00;2.60;;;6.80;99.90;;;12.32;52.76;97632.69;4988618;28;20009;-79
2024/04/17 04:36:50;;;;;;;5.43;2.60;;;6.80;99.90;;;12.24;52.10;97635.28;4997116;28;20025;-78
2024/04/17 04:39:20;;;;;;;10.13;3.30;;;6.70;99.90;;;12.12;52.56;97626.81;4998142;28;20008;-79
2024/04/17 04:41:48;;;;;;;7.88;2.80;;;6.70;99.90;;;12.08;52.89;97635.19;4990461;28;20486;-78
2024/04/17 04:44:23;;;;;;;8.68;3.08;;;6.60;99.90;;;12.05;52.50;97630.25;4997837;28;20013;-79
2024/04/17 04:46:56;;;;;;;6.10;3.25;;;6.70;99.90;;;12.04;53.15;97639.91;4994310;28;20406;-78
2024/04/17 04:49:26;;;;;;;6.70;3.25;;;6.70;99.90;;;12.00;52.68;97630.69;5002320;28;20016;-79
2024/04/17 04:51:57;;;;;;;10.30;3.92;;;6.60;99.90;;;11.99;52.58;97630.84;5010953;28;20020;-79
2024/04/17 04:54:27;;;;;;;9.45;3.38;;;6.60;99.90;;;11.99;52.74;97629.03;4986528;28;20128;-78
2024/04/17 04:56:55;;;;;;;8.45;3.17;;;6.60;99.90;;;12.01;52.81;97636.75;4987441;28;20017;-78
2024/04/17 04:59:25;;;;;;;9.80;3.35;;;6.60;99.90;;;12.03;52.62;97637.41;4997745;28;20016;-78
2024/04/17 05:01:53;;;;;;;15.20;3.75;;;6.60;99.90;;;12.04;52.59;97637.28;4987304;28;20020;-78
2024/04/17 05:04:23;;;;;;;7.22;3.80;;;6.70;99.90;;;11.93;52.90;97633.09;4988804;28;20028;-80
2024/04/17 05:06:51;;;;;;;9.07;4.10;;;6.60;99.90;;;11.87;53.13;97628.47;5043090;28;20459;-80
2024/04/17 05:09:26;;;;;;;8.88;3.58;;;6.60;99.90;;;11.85;52.87;97633.03;5018615;28;20015;-78
2024/04/17 05:11:54;;;;;;;7.78;3.40;;;6.60;99.90;;;11.80;53.26;97632.66;4956856;28;20017;-80
2024/04/17 05:14:24;;;;;;;12.90;3.60;;;6.60;99.90;;;11.80;53.94;97627.41;4987178;28;20473;-80
2024/04/17 05:16:52;;;;;;;12.05;3.83;;;6.60;99.90;;;11.84;53.73;97634.00;5019111;28;20023;-79
2024/04/17 05:19:22;;;;;;;9.43;3.15;;;6.60;99.90;;;11.81;53.45;97636.13;4993235;28;20009;-80
2024/04/17 05:21:50;;;;;;;8.40;3.67;;;6.60;99.90;;;11.75;53.32;97641.97;4988404;28;20009;-81
2024/04/17 05:24:20;;;;;;;12.93;3.95;;;6.60;99.90;;;11.72;53.87;97640.44;4986754;28;20008;-79
2024/04/17 05:26:51;;;;;;;11.65;4.10;;;6.60;99.90;;;11.76;53.62;97639.19;4987083;28;20492;-79
2024/04/17 05:29:21;;;;;;;11.57;4.07;;;6.60;99.90;;;11.79;53.80;97644.13;4996651;28;20008;-79
2024/04/17 05:31:49;;;;;;;5.80;2.80;;;6.70;99.90;;;11.87;53.78;97646.81;5016399;28;20016;-79
2024/04/17 05:34:19;;;;;;;7.40;3.47;;;6.70;99.90;;;11.96;53.32;97645.06;5011678;28;20091;-79
2024/04/17 05:36:47;;;;;;;7.95;3.80;;;6.80;99.90;;;12.02;53.45;97639.22;4985346;28;20008;-79
2024/04/17 05:39:17;;;;;;;14.20;3.70;;;6.90;99.90;;;12.14;53.73;97637.19;4977213;28;20005;-78
2024/04/17 05:41:45;;;;;;;12.18;3.50;;;7.10;99.90;;;12.28;53.38;97644.50;4981606;28;20009;-78
2024/04/17 05:44:18;;;;;;;10.35;3.05;;;7.30;99.90;;;12.39;52.74;97636.34;4985974;28;20085;-78
2024/04/17 05:46:46;;;;;;;9.60;3.20;;;7.60;99.90;;;12.49;52.55;97635.25;4987036;28;20008;-77
2024/04/17 05:49:16;;;;;;;9.02;3.38;;;7.70;99.90;;;12.62;53.00;97636.63;4986846;28;20009;-79
2024/04/17 05:51:43;;;;;;;8.02;3.20;;;7.90;99.90;;;12.72;52.54;97626.84;4984266;28;20017;-79
2024/04/17 05:54:14;;;;;;;9.80;3.60;;;8.10;99.90;;;12.90;52.24;97638.09;4987787;28;20017;-79
2024/04/17 05:56:41;;;;;;;12.77;3.50;;;8.30;99.90;;;13.02;51.77;97631.56;4984950;28;20019;-79
2024/04/17 05:59:12;;;;;;;14.85;4.43;;;8.50;99.90;;;13.19;51.76;97637.72;5009112;28;20020;-79
2024/04/17 06:01:42;;;;;;;30.58;5.15;;;8.70;99.90;;;13.29;51.42;97638.41;4986452;28;20016;-79
2024/04/17 06:04:13;;;;;;;23.17;4.88;;;8.60;99.90;;;13.39;51.38;97639.06;4985456;28;20020;-79
2024/04/17 06:06:41;;;;;;;14.35;3.10;;;8.70;99.90;;;13.38;51.39;97640.88;4986913;28;20027;-79
2024/04/17 06:09:11;;;;;;;15.43;3.67;;;8.60;99.90;;;13.46;51.18;97632.19;4993416;28;20016;-79
2024/04/17 06:11:39;;;;;;;7.25;2.95;;;8.60;99.90;;;13.53;50.79;97630.56;4987992;28;20016;-80
2024/04/17 06:14:09;;;;;;;6.82;2.60;;;8.70;99.90;;;13.62;50.96;97645.34;4987646;28;20031;-79
2024/04/17 06:16:37;;;;;;;14.57;3.13;;;8.90;99.90;;;13.77;50.76;97641.09;4987052;28;20017;-79
2024/04/17 06:19:10;;;;;;;6.80;2.10;;;9.30;99.90;;;13.96;50.14;97637.34;5005238;28;20499;-79
2024/04/17 06:21:38;;;;;;;4.55;2.05;;;9.60;98.60;;;14.17;49.94;97647.31;5016292;28;20027;-79
2024/04/17 06:24:09;;;;;;;6.22;2.35;;;9.90;97.60;;;14.39;49.27;97644.06;5015403;28;20012;-79
2024/04/17 06:26:36;;;;;;;10.02;2.70;;;10.20;95.60;;;14.58;49.13;97633.16;4956230;28;20028;-78
2024/04/17 06:29:11;;;;;;;8.40;2.90;;;10.40;94.00;;;14.76;48.67;97633.72;4987208;28;20012;-79
2024/04/17 06:31:39;;;;;;;10.10;2.67;;;10.50;92.60;;;14.86;48.35;97634.34;4991626;28;20016;-79
2024/04/17 06:34:12;;;;;;;11.85;3.28;;;10.60;92.40;;;15.03;48.11;97633.31;4987169;28;20024;-79
2024/04/17 06:36:40;;;;;;;10.73;3.00;;;10.60;92.10;;;15.13;47.53;97630.44;5010324;28;20020;-79
2024/04/17 06:39:15;;;;;;;5.78;2.30;;;10.70;91.60;;;15.18;47.39;97636.00;4994662;28;20027;-79
2024/04/17 06:41:47;;;;;;;5.53;2.10;;;10.70;91.00;;;15.23;47.08;97632.88;4986548;28;20474;-79
2024/04/17 06:44:19;;;;;;;4.78;2.30;;;10.50;91.40;;;15.26;47.01;97629.88;4993456;28;20090;-78
2024/04/17 06:46:46;;;;;;;6.60;2.13;;;10.80;91.20;;;15.34;47.46;97625.41;5001727;28;20872;-80
2024/04/17 06:49:19;;;;;;;10.18;2.72;;;11.00;90.80;;;15.54;46.80;97631.09;5016931;28;20027;-79
2024/04/17 06:51:48;;;;;;;10.45;2.38;;;11.30;89.90;;;15.69;46.97;97631.94;5010685;28;20021;-78
2024/04/17 06:54:23;;;;;;;5.63;2.38;;;11.40;89.30;;;15.78;46.54;97614.22;4987030;28;20025;-79
2024/04/17 06:56:51;;;;;;;8.90;2.22;;;11.40;89.10;;;15.89;46.17;97619.94;4985847;28;20382;-78
2024/04/17 06:59:26;;;;;;;5.63;2.90;;;11.50;89.10;;;16.00;45.97;97616.06;4997126;28;20016;-79
2024/04/17 07:01:59;;;;;;;8.10;2.75;;;11.60;88.50;;;16.10;45.93;97619.25;4994594;28;20016;-79
2024/04/17 07:04:32;;;;;;;8.35;2.80;;;11.60;89.30;;;16.27;46.22;97617.28;4983924;28;20057;-79
2024/04/17 07:06:59;;;;;;;9.70;2.97;;;12.00;88.20;;;16.41;45.63;97614.66;4983483;28;20024;-80
2024/04/17 07:09:30;;;;;;;15.48;2.88;;;12.20;87.20;;;16.55;45.72;97613.06;4983647;28;20028;-79
2024/04/17 07:11:57;;;;;;;7.20;3.08;;;12.30;86.80;;;16.62;45.55;97613.97;4983588;28;20027;-80
2024/04/17 07:14:32;;;;;;;7.47;2.63;;;12.10;87.10;;;16.65;45.58;97603.03;4986811;28;20016;-80
2024/04/17 07:17:05;;;;;;;12.05;3.25;;;12.10;86.70;;;16.73;44.74;97605.56;4984874;28;20257;-79
2024/04/17 07:19:38;;;;;;;7.85;2.78;;;12.30;85.80;;;16.75;44.15;97606.22;5004284;28;20027;-79
2024/04/17 07:22:06;;;;;;;5.93;2.42;;;12.30;84.30;;;16.75;43.63;97606.22;4986220;28;20013;-78
2024/04/17 07:24:36;;;;;;;11.07;2.80;;;12.30;84.00;;;16.89;43.37;97600.06;4986670;28;20028;-79
2024/04/17 07:27:04;;;;;;;5.53;2.20;;;12.50;80.80;;;16.91;43.42;97600.72;5010144;28;20094;-79
2024/04/17 07:29:34;;;;;;;5.18;2.08;;;12.30;82.40;;;16.94;42.88;97600.34;4986614;28;20045;-78
2024/04/17 07:32:02;;;;;;;6.05;2.25;;;12.40;82.10;;;17.03;42.49;97587.84;4987228;28;20020;-79
2024/04/17 07:34:32;;;;;;;4.53;2.72;;;12.60;80.90;;;17.10;42.30;97586.09;4986342;28;20016;-79
2024/04/17 07:37:05;;;;;;;6.03;2.20;;;12.60;81.00;;;17.24;42.64;97587.06;5010628;28;20016;-79
2024/04/17 07:39:33;;;;;;;9.23;2.38;;;12.90;78.90;;;17.39;42.12;97593.13;5000967;28;20017;-79
2024/04/17 07:42:09;;;;;;;8.23;1.70;;;13.10;78.60;;;17.51;41.40;97573.13;4989472;28;20016;-79
2024/04/17 07:44:36;;;;;;;5.80;2.10;;;13.10;76.60;;;17.60;40.42;97574.66;4989196;28;20057;-79
2024/04/17 07:47:07;;;;;;;9.65;1.80;;;13.20;76.30;;;17.72;40.23;97582.88;4988093;28;20024;-79
2024/04/17 07:49:40;;;;;;;6.70;1.67;;;13.20;75.10;;;17.80;40.59;97577.47;5019220;28;20031;-80
2024/04/17 07:52:13;;;;;;;19.20;2.30;;;13.40;74.80;;;17.90;39.30;97580.63;4995412;28;20044;-79
2024/04/17 07:54:41;;;;;;;11.73;1.83;;;13.60;73.00;;;17.97;39.30;97584.97;5005334;28;20028;-79
2024/04/17 07:57:11;;;;;;;1.98;1.08;;;13.40;73.10;;;18.00;38.60;97570.53;5019113;28;20471;-79
2024/04/17 07:59:41;;;;;;;3.05;1.27;;;13.50;71.80;;;18.04;38.23;97564.66;5012790;28;20016;-78
2024/04/17 08:02:09;;;;;;;12.65;1.58;;;13.60;70.70;;;18.18;38.10;97562.09;5011025;28;20016;-79
2024/04/17 08:04:39;;;;;;;8.02;2.35;;;13.80;70.50;;;18.33;38.38;97563.63;5019134;28;20030;-79
2024/04/17 08:07:10;;;;;;;3.80;1.20;;;16.10;71.60;;;18.48;37.42;97563.50;5019423;28;20144;-79
2024/04/17 08:09:40;;;;;;;2.95;1.40;;;14.00;68.50;;;18.54;37.24;97565.41;5016920;28;20016;-79
2024/04/17 08:12:08;;;;;;;2.75;1.08;;;14.00;68.30;;;18.64;36.18;97557.91;5015930;28;20039;-79
2024/04/17 08:14:38;;;;;;;2.38;0.70;;;14.20;66.90;;;18.76;35.01;97561.66;5018159;28;20020;-80
2024/04/17 08:17:06;;;;;;;3.92;0.90;;;14.40;62.20;;;18.80;34.22;97556.78;4985222;28;20024;-79
2024/04/17 08:19:36;;;;;;;6.50;1.00;;;14.60;60.90;;;18.89;34.19;97558.22;4957967;28;20356;-79
2024/04/17 08:22:04;;;;;;;2.95;0.50;;;14.80;60.50;;;19.06;33.65;97555.03;5006530;28;20016;-78
2024/04/17 08:24:37;;;;;;;4.68;0.85;;;14.90;58.90;;;19.17;33.13;97556.28;5000909;28;20017;-79
2024/04/17 08:27:05;;;;;;;4.25;0.80;;;15.00;58.10;;;19.34;32.99;97552.25;4986626;28;20016;-79
2024/04/17 08:29:40;;;;;;;4.65;0.55;;;15.20;57.80;;;19.47;32.48;97556.78;5001895;28;20869;-78
2024/04/17 08:32:08;;;;;;;3.55;0.40;;;15.20;55.70;;;19.67;32.21;97554.97;4989540;28;20356;-79
2024/04/17 08:34:43;;;;;;;4.25;1.00;;;15.50;55.40;;;19.81;33.03;97553.97;4990962;28;20032;-79
2024/04/17 08:37:11;;;;;;;1.23;0.47;;;15.60;58.60;;;20.01;32.23;97552.13;4988161;28;20016;-79
2024/04/17 08:39:44;;;;;;;1.80;0.20;;;15.90;56.10;;;20.15;29.25;97553.72;4998238;28;20039;-78
2024/04/17 08:42:21;;;;;;;0.95;0.43;;;15.80;49.40;;;20.19;27.85;97554.13;4999920;28;20488;-79
2024/04/17 08:44:52;;;;;;;5.60;1.00;;;15.80;46.90;;;20.19;30.61;97559.44;5005616;28;20016;-79
2024/04/17 08:47:25;;;;;;;5.90;0.70;;;15.70;55.50;;;20.31;31.79;97552.53;5009049;28;20019;-79
2024/04/17 08:49:57;;;;;;;2.97;0.73;;;16.00;56.30;;;20.51;31.88;97557.81;5001546;28;20026;-78
2024/04/17 08:52:26;;;;;;;5.00;0.82;;;16.20;55.80;;;20.65;31.92;97564.69;4987990;28;20017;-79
2024/04/17 08:55:00;;;;;;;4.60;1.08;;;16.40;55.70;;;20.81;31.47;97553.63;4987950;28;20017;-79
2024/04/17 08:57:29;;;;;;;3.00;1.10;;;16.40;55.30;;;20.83;31.95;97556.06;4988075;28;20090;-79
2024/04/17 08:59:59;;;;;;;2.30;0.30;;;16.30;55.50;;;20.81;27.94;97548.31;4986565;28;20016;-79
2024/04/17 09:02:28;;;;;;;2.65;0.50;;;16.40;47.70;;;20.69;26.02;97540.16;5011641;28;20041;-78
2024/04/17 09:04:59;;;;;;;0.55;0.20;;;16.20;43.00;;;20.64;24.79;97550.63;4988174;28;20384;-79
2024/04/17 09:07:28;;;;;;;0.40;0.20;;;16.10;41.30;;;20.61;24.41;97536.91;4988384;28;20028;-78
2024/04/17 09:10:01;;;;;;;0.98;0.10;;;16.30;41.10;;;20.72;24.10;97538.91;4987825;28;20851;-79
2024/04/17 09:12:31;;;;;;;3.60;0.30;;;16.20;39.60;;;20.74;23.30;97547.50;4989218;28;20094;-79
2024/04/17 09:15:02;;;;;;;0.40;0.10;;;16.10;40.10;;;20.78;23.30;97539.94;4987803;28;20017;-79
2024/04/17 09:17:29;;;;;;;1.93;0.20;;;16.40;39.40;;;20.90;23.78;97540.91;4988055;28;20016;-79
2024/04/17 09:20:00;;;;;;;1.85;0.10;;;16.80;39.00;;;21.07;23.94;97532.22;5012520;28;20016;-79
2024/04/17 09:22:27;;;;;;;4.00;1.00;;;17.10;39.50;;;21.30;26.42;97526.38;4987762;28;20333;-79
2024/04/17 09:25:00;;;;;;;1.52;0.40;;;17.10;45.90;;;21.47;26.57;97538.13;5012029;28;20016;-78
2024/04/17 09:27:33;;;;;;;0.73;0.35;;;17.40;45.40;;;21.45;22.86;97534.06;4986934;28;20024;-79
2024/04/17 09:30:03;;;;;;;0.75;0.10;;;17.10;37.80;;;21.46;22.22;97531.19;4986927;28;20016;-79
2024/04/17 09:32:31;;;;;;;0.65;0.00;;;17.10;36.60;;;21.50;21.27;97531.59;4988252;28;20017;-79
2024/04/17 09:35:02;;;;;;;0.57;0.15;;;17.10;33.60;;;21.42;19.56;97531.84;4987070;28;20016;-78
2024/04/17 09:37:31;;;;;;;0.08;0.08;;;16.80;33.60;;;21.40;20.41;97524.06;4987624;28;20016;-79
2024/04/17 09:40:10;;;;;;;0.10;0.10;;;17.00;34.30;;;21.40;20.52;97521.41;4987584;28;20016;-79
2024/04/17 09:42:41;;;;;;;2.28;0.08;;;17.20;34.40;;;21.47;20.47;97519.50;4987857;28;20017;-79
2024/04/17 09:45:16;;;;;;;0.33;0.20;;;17.30;33.90;;;21.54;20.49;97520.28;4987654;28;20020;-79
2024/04/17 09:47:46;;;;;;;1.27;0.10;;;17.30;33.30;;;21.54;19.22;97517.59;4987776;28;20027;-79
2024/04/17 09:50:21;;;;;;;0.70;0.05;;;17.10;32.10;;;21.51;19.72;97509.22;4987309;28;20016;-79
2024/04/17 09:52:52;;;;;;;0.82;0.10;;;17.10;32.90;;;21.55;19.64;97516.59;4987650;28;20028;-78
2024/04/17 09:55:27;;;;;;;0.35;0.20;;;17.30;32.50;;;21.61;19.88;97510.38;4987372;28;20355;-78
2024/04/17 09:58:01;;;;;;;2.55;0.00;;;17.40;32.20;;;21.69;19.33;97506.66;4987621;28;20023;-79
2024/04/17 10:00:36;;;;;;;1.02;0.13;;;17.20;32.30;;;21.72;19.10;97509.69;4987278;28;20057;-79
2024/04/17 10:03:06;;;;;;;2.50;0.10;;;17.20;32.00;;;21.76;19.48;97502.09;5010712;28;20463;-78
2024/04/17 10:05:37;;;;;;;0.08;0.00;;;17.40;32.70;;;21.90;19.05;97500.16;4994805;28;20024;-78
2024/04/17 10:08:07;;;;;;;0.22;0.10;;;17.60;31.70;;;22.01;19.20;97497.56;4986664;28;20028;-78
2024/04/17 10:10:40;;;;;;;0.20;0.20;;;17.70;31.90;;;22.14;19.37;97497.44;4993049;28;20222;-78
2024/04/17 10:13:10;;;;;;;1.48;0.10;;;17.90;32.10;;;22.23;19.39;97490.78;4996597;28;20017;-79
2024/04/17 10:15:45;;;;;;;0.57;0.03;;;17.80;32.00;;;22.14;18.90;97491.28;4999863;28;20012;-79
2024/04/17 10:18:19;;;;;;;0.10;0.10;;;17.70;31.70;;;22.11;19.15;97476.56;4987545;28;20044;-78
2024/04/17 10:20:56;;;;;;;0.57;0.10;;;17.90;31.50;;;22.33;19.01;97482.28;4971068;28;20016;-78
2024/04/17 10:23:29;;;;;;;2.92;0.20;;;18.10;31.10;;;22.41;19.04;97465.16;5004023;28;20015;-78
2024/04/17 10:26:14;;;;;;;0.35;0.00;;;17.90;31.20;;;22.44;19.16;97470.06;4996390;28;20032;-78
2024/04/17 10:28:51;;;;;;;1.10;0.10;;;18.10;31.30;;;22.35;18.61;97456.22;4997439;28;20024;-78
2024/04/17 10:31:21;;;;;;;2.08;0.10;;;17.90;31.80;;;22.38;18.79;97466.44;4984295;28;20020;-78
2024/04/17 10:33:57;;;;;;;0.10;0.10;;;17.90;30.70;;;22.48;18.91;97457.91;5001664;28;20017;-79
2024/04/17 10:36:32;;;;;;;1.80;0.10;;;18.30;31.10;;;22.62;18.02;97452.16;4984688;28;20024;-79